Latest Weather Observations for The Monument

IDQ60801

Issued at 6:35 pm EST Thursday 28 August 2014 (issued every 30 minutes, with the page automatically refreshed every 10 minutes)

About weather observations | Map of weather stations | Latest weather observations for QLD | Other Formats
Station Details ID: 037034 Name: THE MONUMENT AIRPORT Lat: -21.81 Lon: 139.93 Height: 288.4 m
Data from the previous 72 hours. | See also: Recent months at The Monument
Date/Time
EST
Temp
°C
App
Temp
°C
Dew
Point
Rel
Hum
%
Delta-T
°C
Wind Press
QNH
hPa
Press
MSL
hPa
Rain
since 9 am
mm
Dir
 
Spd
km/h
Gust
km/h
Spd
kts
Gust
kts
28/06:30pm 23.6 17.9 -0.6 20 11.0 SE 19 24 10 13 1019.4 1018.8 0.0
28/06:00pm 24.8 18.9 -1.1 18 11.8 SE 20 33 11 18 1019.4 1018.8 0.0
28/05:30pm 25.5 18.9 -0.5 18 12.1 SE 24 32 13 17 1019.3 1018.7 0.0
28/05:00pm 26.1 19.8 -0.8 17 12.4 SSE 22 30 12 16 1019.0 1018.4 0.0
28/04:30pm 26.2 19.9 -0.8 17 12.5 SSE 22 32 12 17 1018.7 1018.0 0.0
28/04:00pm 26.8 20.7 0.5 18 12.5 ESE 22 32 12 17 1018.8 1018.1 0.0
28/03:30pm 26.1 19.9 0.0 18 12.3 SE 22 33 12 18 1018.9 1018.3 0.0
28/03:00pm 26.7 20.2 0.4 18 12.5 ESE 24 35 13 19 1019.1 1018.5 0.0
28/02:30pm 25.8 19.0 0.5 19 12.0 SSE 26 37 14 20 1019.5 1018.9 0.0
28/02:00pm 25.6 19.6 1.0 20 11.7 ESE 22 33 12 18 1019.8 1019.2 0.0
28/01:30pm 25.0 19.5 1.8 22 11.2 ESE 20 32 11 17 1020.5 1019.8 0.0
28/01:00pm 24.5 18.8 2.6 24 10.7 ESE 22 35 12 19 1021.0 1020.3 0.0
28/12:30pm 23.5 17.8 2.9 26 10.0 ESE 22 32 12 17 1021.7 1021.0 0.0
28/12:00pm 23.2 17.6 3.2 27 9.7 ESE 22 33 12 18 1022.0 1021.4 0.0
28/11:30am 22.9 17.3 3.4 28 9.6 SE 22 35 12 19 1022.5 1021.9 0.0
28/11:00am 22.5 16.5 3.6 29 9.2 E 24 33 13 18 1022.8 1022.2 0.0
28/10:30am 21.7 15.3 3.4 30 8.9 E 26 35 14 19 1023.0 1022.4 0.0
28/10:00am 20.9 15.7 3.6 32 8.4 ESE 20 32 11 17 1023.1 1022.5 0.0
28/09:30am 18.6 12.4 2.0 33 7.7 ESE 24 33 13 18 1023.2 1022.6 0.0
28/09:00am 17.9 12.5 2.6 36 7.1 ESE 20 32 11 17 1022.9 1022.3 0.0
28/08:30am 15.4 10.7 0.8 37 6.4 SE 15 20 8 11 1022.9 1022.3 0.0
28/08:00am 12.1 8.6 -1.4 39 5.4 S 7 9 4 5 1022.4 1021.8 0.0
28/07:30am 8.8 5.3 -3.1 43 4.5 SW 6 7 3 4 1022.0 1021.4 0.0
28/07:00am 6.5 3.0 -3.2 50 3.5 SW 6 6 3 3 1021.7 1021.0 0.0
28/06:30am 6.9 3.3 -3.6 47 3.8 SW 6 6 3 3 1021.3 1020.6 0.0
28/06:00am 7.5 3.7 -3.9 44 4.1 SW 7 9 4 5 1021.0 1020.3 0.0
28/05:30am 8.3 4.5 -3.8 42 4.4 SW 7 9 4 5 1020.8 1020.1 0.0
28/05:00am 8.2 5.8 -3.3 44 4.2 CALM 0 0 0 0 1020.7 1020.0 0.0
28/04:30am 8.2 4.9 -4.6 40 4.6 SSW 4 7 2 4 1020.6 1019.9 0.0
28/04:00am 10.4 6.8 -3.6 37 5.3 S 6 7 3 4 1020.7 1020.0 0.0
28/03:30am 11.9 8.0 -1.6 39 5.4 SSE 9 11 5 6 1020.5 1019.8 0.0
28/03:00am 12.2 7.9 -1.7 38 5.6 SSE 11 13 6 7 1020.6 1019.9 0.0
28/02:30am 12.6 8.3 -1.7 37 5.8 SSE 11 13 6 7 1020.7 1020.0 0.0
28/02:00am 12.3 8.0 -2.0 37 5.7 SE 11 13 6 7 1021.1 1020.4 0.0
28/01:30am 12.6 9.0 -2.4 35 6.0 SE 7 9 4 5 1021.3 1020.6 0.0
28/01:00am 12.3 8.8 -3.1 34 6.0 S 6 9 3 5 1021.6 1020.9 0.0
28/12:30am 13.2 9.5 -3.1 32 6.4 SE 7 9 4 5 1021.5 1020.8 0.0
28/12:00am 14.4 9.9 -2.9 30 6.9 SSE 11 15 6 8 1021.6 1020.9 0.0
 
Date/Time
EST
Temp
°C
App
Temp
°C
Dew
Point
Rel
Hum
%
Delta-T
°C
Wind Press
QNH
hPa
Press
MSL
hPa
Rain
since 9 am
mm
Dir
 
Spd
km/h
Gust
km/h
Spd
kts
Gust
kts
27/11:30pm 15.0 10.5 -3.3 28 7.3 SSE 11 13 6 7 1021.7 1021.0 0.0
27/11:00pm 15.9 11.0 -3.1 27 7.7 SSE 13 17 7 9 1021.8 1021.1 0.0
27/10:30pm 16.6 11.7 -3.5 25 8.1 S 13 17 7 9 1021.8 1021.1 0.0
27/10:00pm 16.5 11.6 -3.6 25 8.1 S 13 17 7 9 1021.7 1021.0 0.0
27/09:30pm 16.6 11.6 -4.6 23 8.4 S 13 15 7 8 1021.7 1021.0 0.0
27/09:00pm 16.6 11.9 -5.2 22 8.5 S 11 13 6 7 1021.5 1020.8 0.0
27/08:30pm 17.5 12.8 -5.0 21 8.9 S 11 13 6 7 1021.1 1020.4 0.0
27/08:00pm 18.5 13.8 -4.9 20 9.3 S 11 13 6 7 1020.7 1020.0 0.0
27/07:30pm 19.6 14.6 -4.6 19 9.9 S 13 17 7 9 1020.4 1019.7 0.0
27/07:00pm 21.0 15.2 -4.2 18 10.5 S 17 24 9 13 1019.9 1019.3 0.0
27/06:30pm 22.0 15.3 -4.1 17 11.0 S 22 33 12 18 1019.5 1018.9 0.0
27/06:00pm 23.0 16.7 -4.1 16 11.5 SSE 20 30 11 16 1019.3 1018.7 0.0
27/05:30pm 23.8 17.6 -3.5 16 11.8 SSE 20 30 11 16 1019.1 1018.5 0.0
27/05:00pm 24.4 17.5 -3.0 16 12.0 SSE 24 32 13 17 1019.1 1018.5 0.0
27/04:30pm 25.1 18.9 -3.3 15 12.5 SSE 20 30 11 16 1018.9 1018.3 0.0
27/04:00pm 24.9 18.7 -4.4 14 12.6 SSE 19 32 10 17 1018.8 1018.1 0.0
27/03:30pm 24.4 18.5 -2.2 17 11.9 SSE 19 32 10 17 1018.9 1018.3 0.0
27/03:00pm 24.4 18.2 -3.0 16 12.0 SSE 20 30 11 16 1019.1 1018.5 0.0
27/02:30pm 24.3 18.2 -4.0 15 12.2 SSE 19 30 10 16 1019.3 1018.7 0.0
27/02:00pm 24.1 18.5 -3.3 16 11.9 SE 17 32 9 17 1019.7 1019.1 0.0
27/01:30pm 23.1 17.2 -2.5 18 11.2 SE 19 30 10 16 1020.1 1019.5 0.0
27/01:00pm 22.9 17.2 -3.4 17 11.3 SE 17 35 9 19 1020.7 1020.0 0.0
27/12:30pm 22.5 16.5 -1.6 20 10.7 SSE 20 32 11 17 1021.2 1020.5 0.0
27/12:00pm 21.9 15.9 -1.4 21 10.3 SE 20 32 11 17 1021.7 1021.0 0.0
27/11:30am 20.8 14.5 -1.1 23 9.7 SE 22 33 12 18 1022.3 1021.7 0.0
27/11:00am 20.5 14.2 -0.7 24 9.4 ESE 22 32 12 17 1022.6 1022.0 0.0
27/10:30am 19.7 13.3 -1.4 24 9.2 ESE 22 32 12 17 1022.9 1022.3 0.0
27/10:00am 18.4 12.3 -2.0 25 8.6 ESE 20 26 11 14 1023.0 1022.4 0.0
27/09:30am 17.5 11.4 -2.7 25 8.4 ESE 20 28 11 15 1023.0 1022.4 0.0
27/09:00am 15.3 9.7 -6.9 21 8.2 SE 15 20 8 11 1022.8 1022.2 0.0
27/08:30am 12.6 8.3 -9.1 21 7.4 S 7 11 4 6 1022.5 1021.9 0.0
27/08:00am 9.9 6.8 -10.2 23 6.4 CALM 0 0 0 0 1022.2 1021.6 0.0
27/07:30am 6.9 3.8 -10.3 28 5.3 CALM 0 0 0 0 1021.7 1021.0 0.0
27/07:00am 5.4 1.9 -11.2 29 4.8 S 2 7 1 4 1021.4 1020.7 0.0
27/06:30am 5.9 1.4 -11.6 27 5.1 S 7 9 4 5 1021.0 1020.3 0.0
27/06:00am 5.9 1.4 -11.6 27 5.1 S 7 7 4 4 1020.8 1020.1 0.0
27/05:30am 7.5 3.0 -12.3 23 5.8 S 7 9 4 5 1020.7 1020.0 0.0
27/05:00am 7.8 2.9 -12.0 23 5.9 S 9 9 5 5 1020.6 1019.9 0.0
27/04:30am 7.8 3.3 -12.0 23 5.9 S 7 9 4 5 1020.4 1019.7 0.0
27/04:00am 7.9 4.3 -11.9 23 5.9 S 2 6 1 3 1020.4 1019.7 0.0
27/03:30am 9.4 4.1 -12.4 20 6.6 S 11 13 6 7 1020.6 1019.9 0.0
27/03:00am 9.6 3.9 -12.2 20 6.6 S 13 15 7 8 1020.9 1020.2 0.0
27/02:30am 9.6 4.6 -12.9 19 6.7 S 9 11 5 6 1020.8 1020.1 0.0
27/02:00am 10.2 4.5 -13.0 18 7.0 S 13 13 7 7 1020.9 1020.2 0.0
27/01:30am 10.7 5.0 -13.3 17 7.3 S 13 15 7 8 1021.0 1020.3 0.0
27/01:00am 11.6 5.5 -13.3 16 7.6 S 15 17 8 9 1021.2 1020.5 0.0
27/12:30am 11.6 6.6 -13.3 16 7.6 S 9 13 5 7 1021.2 1020.5 0.0
27/12:00am 12.4 6.6 -13.5 15 8.0 S 13 15 7 8 1021.4 1020.7 0.0
 
Date/Time
EST
Temp
°C
App
Temp
°C
Dew
Point
Rel
Hum
%
Delta-T
°C
Wind Press
QNH
hPa
Press
MSL
hPa
Rain
since 9 am
mm
Dir
 
Spd
km/h
Gust
km/h
Spd
kts
Gust
kts
26/11:30pm 14.2 8.5 -12.9 14 8.7 SSE 13 17 7 9 1021.5 1020.8 0.0
26/11:00pm 14.5 8.8 -12.6 14 8.8 SSE 13 15 7 8 1021.6 1020.9 0.0
26/10:30pm 15.1 9.4 -13.1 13 9.1 SSE 13 15 7 8 1021.6 1020.9 0.0
26/10:00pm 16.5 10.8 -13.0 12 9.7 SSE 13 19 7 10 1021.6 1020.9 0.0
26/09:30pm 17.3 10.9 -12.3 12 10.0 SSE 17 20 9 11 1021.4 1020.7 0.0
26/09:00pm 17.9 11.5 -11.9 12 10.2 SSE 17 24 9 13 1021.0 1020.3 0.0
26/08:30pm 18.3 12.2 -12.6 11 10.5 SSE 15 20 8 11 1020.7 1020.0 0.0
26/08:00pm 18.9 12.8 -12.2 11 10.7 S 15 19 8 10 1020.4 1019.7 0.0
26/07:30pm 20.1 13.7 -12.4 10 11.4 SSE 17 24 9 13 1020.0 1019.4 0.0
26/07:00pm 21.3 14.5 -11.5 10 11.8 S 19 30 10 16 1019.6 1019.0 0.0
26/06:30pm 22.2 15.5 -10.8 10 12.2 SSE 19 28 10 15 1019.2 1018.6 0.0
26/06:00pm 23.4 16.2 -9.9 10 12.7 SSE 22 30 12 16 1018.9 1018.3 0.0
26/05:30pm 24.2 16.0 -8.1 11 12.9 S 28 41 15 22 1018.7 1018.0 0.0
26/05:00pm 24.8 16.6 -7.6 11 13.1 SSE 28 39 15 21 1018.7 1018.0 0.0
26/04:30pm 25.4 18.1 -6.0 12 13.2 SSE 24 39 13 21 1018.7 1018.0 0.0
26/04:00pm 25.8 18.9 -5.7 12 13.3 SE 22 30 12 16 1018.8 1018.1 0.0
26/03:30pm 26.0 19.3 -4.5 13 13.2 S 22 32 12 17 1019.0 1018.4 0.0
26/03:00pm 25.8 18.6 -5.7 12 13.3 SSE 24 37 13 20 1019.2 1018.6 0.0
26/02:30pm 25.2 18.1 -4.2 14 12.7 S 24 37 13 20 1019.4 1018.8 0.0
26/02:00pm 25.5 18.7 -2.1 16 12.4 S 24 37 13 20 1019.7 1019.1 0.0
26/01:30pm 25.4 18.6 -2.2 16 12.4 SSE 24 37 13 20 1020.1 1019.5 0.0
26/01:00pm 25.1 18.7 -1.6 17 12.1 SE 22 33 12 18 1020.8 1020.1 0.0
26/12:30pm 24.4 18.1 -0.7 19 11.5 SE 22 35 12 19 1021.5 1020.8 0.0
26/12:00pm 24.2 18.4 -0.2 20 11.2 ESE 20 26 11 14 1022.0 1021.4 0.0
26/11:30am 23.6 17.1 0.0 21 10.9 ESE 24 35 13 19 1022.4 1021.8 0.0
26/11:00am 22.6 15.9 -0.8 21 10.5 ESE 24 35 13 19 1022.9 1022.3 0.0
26/10:30am 21.6 14.5 -1.6 21 10.2 ESE 26 37 14 20 1023.2 1022.6 0.0
26/10:00am 21.4 14.9 -2.5 20 10.3 ESE 22 30 12 16 1023.2 1022.6 0.0
26/09:30am 20.0 13.1 -3.0 21 9.7 ESE 24 33 13 18 1023.0 1022.4 0.0
26/09:00am 17.8 11.7 -3.6 23 8.7 SE 19 26 10 14 1022.9 1022.3 0.0
26/08:30am 15.4 10.1 -3.5 27 7.6 SE 15 20 8 11 1022.8 1022.2 0.0
26/08:00am 12.5 9.1 -2.1 36 5.8 S 6 9 3 5 1022.4 1021.8 0.0
26/07:30am 9.4 5.8 -2.2 44 4.5 SSW 7 7 4 4 1022.3 1021.7 0.0
26/07:00am 8.4 4.0 -2.8 45 4.2 S 11 13 6 7 1021.9 1021.3 0.0
26/06:30am 8.8 6.1 -2.5 45 4.3 SSE 2 9 1 5 1021.5 1020.8 0.0
26/06:00am 9.3 5.8 -1.1 48 4.1 SSE 7 9 4 5 1021.2 1020.5 0.0
26/05:30am 9.6 6.1 -1.7 45 4.4 SSE 7 9 4 5 1020.9 1020.2 0.0
26/05:00am 10.8 6.9 -1.6 42 4.9 SSE 9 11 5 6 1021.0 1020.3 0.0
26/04:30am 10.3 6.8 -1.1 45 4.6 SSE 7 11 4 6 1020.9 1020.2 0.0
26/04:00am 11.3 7.9 -0.8 43 4.9 SSE 7 9 4 5 1020.9 1020.2 0.0
26/03:30am 12.6 8.8 -1.0 39 5.6 SSE 9 11 5 6 1021.0 1020.3 0.0
26/03:00am 13.2 9.0 -1.2 37 5.9 SSE 11 11 6 6 1021.1 1020.4 0.0
26/02:30am 13.5 9.6 -1.3 36 6.1 SSE 9 11 5 6 1021.3 1020.6 0.0
26/02:00am 13.9 10.0 -1.3 35 6.3 SSE 9 11 5 6 1021.4 1020.7 0.0
26/01:30am 14.1 10.6 -1.5 34 6.4 SSE 7 9 4 5 1021.6 1020.9 0.0
26/01:00am 15.0 10.7 -1.5 32 6.8 SSE 11 13 6 7 1021.8 1021.1 0.0
26/12:30am 16.0 11.4 -1.1 31 7.2 SSE 13 17 7 9 1021.8 1021.1 0.0
26/12:00am 17.0 12.0 -1.1 29 7.7 SSE 15 20 8 11 1021.8 1021.1 0.0
 
Date/Time
EST
Temp
°C
App
Temp
°C
Dew
Point
Rel
Hum
%
Delta-T
°C
Wind Press
QNH
hPa
Press
MSL
hPa
Rain
since 9 am
mm
Dir
 
Spd
km/h
Gust
km/h
Spd
kts
Gust
kts
25/11:30pm 17.9 12.2 -0.8 28 8.1 SSE 19 24 10 13 1021.9 1021.3 0.0
25/11:00pm 18.1 12.7 -1.2 27 8.3 SSE 17 24 9 13 1022.0 1021.4 0.0
25/10:30pm 18.5 12.7 -1.3 26 8.5 SSE 19 24 10 13 1022.0 1021.4 0.0
25/10:00pm 18.6 13.6 -1.3 26 8.6 SSE 15 20 8 11 1022.0 1021.4 0.0
25/09:30pm 17.8 13.1 -1.9 26 8.3 S 13 17 7 9 1022.0 1021.4 0.0
25/09:00pm 18.6 14.3 -1.8 25 8.7 S 11 13 6 7 1021.8 1021.1 0.0
25/08:30pm 19.7 15.0 -2.0 23 9.3 SSE 13 15 7 8 1021.5 1020.8 0.0
25/08:00pm 21.2 16.2 -1.3 22 9.9 SSE 15 22 8 12 1021.3 1020.6 0.0
25/07:30pm 21.8 16.4 -1.5 21 10.3 SSE 17 24 9 13 1021.0 1020.3 0.0
25/07:00pm 22.4 17.0 -1.6 20 10.6 SE 17 24 9 13 1020.6 1019.9 0.0

Other Formats:

Comma delimited format used in spreadsheet applications
http://www.bom.gov.au/fwo/IDQ60801/IDQ60801.94336.axf

JavaScript Object Notation format (JSON) in row-major order
http://www.bom.gov.au/fwo/IDQ60801/IDQ60801.94336.json